createdAt,value
2023-01-26T00:02:38.643Z,102005.52
2023-01-26T00:05:44.223Z,102002.44
2023-01-26T00:08:57.877Z,101999.53
2023-01-26T00:12:03.150Z,102002.84
2023-01-26T00:15:09.599Z,102007.61
2023-01-26T00:18:16.305Z,102002.55
2023-01-26T00:21:23.222Z,101999.70
2023-01-26T00:24:28.644Z,102007.63
2023-01-26T00:27:34.479Z,102003.09
2023-01-26T00:30:41.035Z,102000.39
2023-01-26T00:33:47.452Z,102002.70
2023-01-26T00:36:53.804Z,102003.50
2023-01-26T00:39:59.021Z,101999.30
2023-01-26T00:43:07.416Z,102002.08
2023-01-26T00:46:12.623Z,102004.23
2023-01-26T00:49:18.341Z,102003.10
2023-01-26T00:52:24.221Z,101999.31
2023-01-26T00:55:30.478Z,102004.13
2023-01-26T00:58:37.099Z,101998.56
2023-01-26T01:01:43.673Z,101996.75
2023-01-26T01:04:48.957Z,101999.37
2023-01-26T01:07:55.140Z,101995.70
2023-01-26T01:11:01.530Z,101995.48
2023-01-26T01:14:08.973Z,101997.80
2023-01-26T01:17:15.832Z,101995.10
2023-01-26T01:20:23.280Z,101994.38
2023-01-26T01:23:29.704Z,101994.62
2023-01-26T01:26:34.507Z,101991.84
2023-01-26T01:29:40.165Z,101992.23
2023-01-26T01:32:51.979Z,101986.83
2023-01-26T01:35:57.967Z,101989.99
2023-01-26T01:38:59.224Z,101975.73
2023-01-26T01:42:04.050Z,101984.38
2023-01-26T01:45:43.866Z,101976.50
2023-01-26T01:49:12.543Z,101978.98
2023-01-26T01:52:27.216Z,101974.36
2023-01-26T01:55:33.449Z,101976.05
2023-01-26T01:58:38.979Z,101968.71
2023-01-26T02:01:46.547Z,101980.55
2023-01-26T02:04:52.585Z,101980.55
2023-01-26T02:07:59.574Z,101975.41
2023-01-26T02:11:07.204Z,101973.59
2023-01-26T02:14:13.634Z,101975.63
2023-01-26T02:17:23.347Z,101970.64
2023-01-26T02:20:53.664Z,101967.95
2023-01-26T02:24:20.506Z,101966.68
2023-01-26T02:27:27.535Z,101967.53
2023-01-26T02:30:32.171Z,101954.20
2023-01-26T02:33:42.473Z,101952.08
2023-01-26T02:36:48.581Z,101946.35
2023-01-26T02:40:16.225Z,101945.72
2023-01-26T02:43:22.705Z,101938.30
2023-01-26T02:46:29.513Z,101929.45
2023-01-26T02:49:50.758Z,101932.91
2023-01-26T02:52:58.799Z,101928.23
2023-01-26T02:56:05.383Z,101935.06
2023-01-26T02:59:10.901Z,101930.62
2023-01-26T03:02:15.807Z,101934.21
2023-01-26T03:05:23.567Z,101926.58
2023-01-26T03:08:33.211Z,101922.06
2023-01-26T03:11:41.029Z,101927.80
2023-01-26T03:14:47.208Z,101919.23
2023-01-26T03:17:53.972Z,101928.50
2023-01-26T03:21:21.850Z,101925.89
2023-01-26T03:24:46.314Z,101923.99
2023-01-26T03:27:55.764Z,101922.64
2023-01-26T03:31:01.010Z,101920.24
2023-01-26T03:34:06.401Z,101915.73
2023-01-26T03:37:12.146Z,101914.84
2023-01-26T03:40:38.433Z,101910.33
2023-01-26T03:44:04.507Z,101913.67
2023-01-26T03:47:27.796Z,101913.08
2023-01-26T03:50:52.415Z,101911.19
2023-01-26T03:54:16.122Z,101917.38
2023-01-26T03:57:22.156Z,101916.41
2023-01-26T04:00:29.129Z,101923.58
2023-01-26T04:03:55.010Z,101917.77
2023-01-26T04:07:20.127Z,101915.23
2023-01-26T04:10:28.021Z,101921.18
2023-01-26T04:13:55.472Z,101924.46
2023-01-26T04:17:20.110Z,101917.38
2023-01-26T04:20:43.872Z,101911.22
2023-01-26T04:23:49.342Z,101910.75
2023-01-26T04:26:56.913Z,101913.66
2023-01-26T04:30:07.581Z,101916.60
2023-01-26T04:33:13.938Z,101915.41
2023-01-26T04:36:22.523Z,101920.01
2023-01-26T04:39:27.513Z,101919.23
2023-01-26T04:42:32.917Z,101919.96
2023-01-26T04:45:38.727Z,101931.27
2023-01-26T04:48:46.240Z,101936.59
2023-01-26T04:51:53.568Z,101933.34
2023-01-26T04:55:01.539Z,101934.69
2023-01-26T04:58:09.644Z,101941.77
2023-01-26T05:01:16.013Z,101940.34
2023-01-26T05:04:21.380Z,101941.69
2023-01-26T05:07:26.579Z,101942.88
2023-01-26T05:10:33.506Z,101947.23
2023-01-26T05:13:47.940Z,101946.77
2023-01-26T05:16:56.423Z,101946.67
2023-01-26T05:20:13.388Z,101946.91
2023-01-26T05:23:27.186Z,101946.27
2023-01-26T05:26:32.985Z,101945.34
2023-01-26T05:29:41.181Z,101954.36
2023-01-26T05:32:49.766Z,101947.80
2023-01-26T07:31:39.100Z,101965.16
2023-01-26T07:34:52.422Z,101970.72
2023-01-26T07:38:10.385Z,101968.28
2023-01-26T07:41:39.560Z,101972.77
2023-01-26T07:45:23.291Z,101964.83
2023-01-26T07:48:31.471Z,101967.83
2023-01-26T07:51:41.033Z,101959.44
2023-01-26T07:55:15.921Z,101964.50
2023-01-26T07:58:36.270Z,101964.16
2023-01-26T08:01:59.673Z,101961.55
2023-01-26T08:05:22.065Z,101966.09
2023-01-26T08:08:31.080Z,101955.47
2023-01-26T08:11:51.267Z,101959.56
2023-01-26T08:15:17.218Z,101961.50
2023-01-26T08:18:40.268Z,101964.17
2023-01-26T08:22:12.398Z,101962.81
2023-01-26T08:25:45.554Z,101964.80
2023-01-26T08:29:13.773Z,101966.19
2023-01-26T08:32:35.389Z,101966.18
2023-01-26T08:35:50.436Z,101971.03
2023-01-26T08:39:09.691Z,101966.72
2023-01-26T08:42:34.289Z,101962.79
2023-01-26T08:46:02.259Z,101967.73
2023-01-26T08:49:18.420Z,101957.81
2023-01-26T08:52:32.180Z,101967.83
2023-01-26T08:55:44.011Z,101963.77
2023-01-26T08:59:16.641Z,101965.38
2023-01-26T09:02:36.358Z,101959.17
2023-01-26T09:06:08.790Z,101949.99
2023-01-26T09:09:22.028Z,101951.50
2023-01-26T09:12:42.648Z,101947.98
2023-01-26T09:15:55.721Z,101948.42
2023-01-26T09:19:14.907Z,101929.88
2023-01-26T09:22:27.516Z,101936.11
2023-01-26T09:25:42.714Z,101933.34
2023-01-26T09:33:00.375Z,101920.77
2023-01-26T09:36:28.687Z,101922.24
2023-01-26T09:39:55.792Z,101917.31
2023-01-26T09:51:11.424Z,101915.28
2023-01-26T09:54:49.470Z,101922.18
2023-01-26T09:58:25.675Z,101919.37
2023-01-26T10:02:06.173Z,101914.40
2023-01-26T10:05:25.667Z,101910.97
2023-01-26T10:08:43.200Z,101914.10
2023-01-26T10:12:10.732Z,101908.16
2023-01-26T10:15:44.844Z,101897.69
2023-01-26T10:19:22.195Z,101896.84
2023-01-26T10:23:00.200Z,101897.45
2023-01-26T10:26:13.992Z,101893.58
2023-01-26T10:29:30.614Z,101899.78
2023-01-26T10:32:42.440Z,101901.19
2023-01-26T10:35:58.735Z,101889.11
2023-01-26T10:39:16.991Z,101889.25
2023-01-26T10:42:39.020Z,101896.52
2023-01-26T10:46:04.278Z,101897.87
2023-01-26T10:49:20.684Z,101892.42
2023-01-26T10:52:38.490Z,101893.58
2023-01-26T10:56:03.798Z,101892.88
2023-01-26T10:59:22.774Z,101884.25
2023-01-26T11:06:44.814Z,101880.70
2023-01-26T11:10:16.532Z,101873.83
2023-01-26T11:13:49.577Z,101862.92
2023-01-26T11:17:31.073Z,101856.96
2023-01-26T11:21:10.822Z,101857.61
2023-01-26T11:24:36.189Z,101860.31
2023-01-26T11:42:30.749Z,101842.67
2023-01-26T11:46:33.717Z,101843.91
2023-01-26T11:50:08.999Z,101841.50
2023-01-26T11:54:01.255Z,101830.22
2023-01-26T12:01:08.437Z,101837.16
2023-01-26T12:04:40.049Z,101831.84
2023-01-26T12:08:51.502Z,101831.16
2023-01-26T12:12:30.547Z,101834.23
2023-01-26T12:15:51.778Z,101831.34
2023-01-26T12:19:31.420Z,101830.27
2023-01-26T12:23:01.620Z,101832.31
2023-01-26T12:26:47.602Z,101830.08
2023-01-26T12:30:37.140Z,101826.73
2023-01-26T12:34:06.869Z,101823.05
2023-01-26T12:38:17.355Z,101827.98
2023-01-26T12:41:45.571Z,101822.58
2023-01-26T12:45:24.727Z,101813.77
2023-01-26T12:49:01.639Z,101815.44
2023-01-26T12:56:37.300Z,101814.18
2023-01-26T13:04:01.148Z,101811.00
2023-01-26T13:08:03.464Z,101807.16
2023-01-26T13:12:24.051Z,101813.71
2023-01-26T13:15:58.786Z,101812.74
2023-01-26T13:19:20.142Z,101801.84
2023-01-26T13:23:11.545Z,101800.97
2023-01-26T13:26:40.432Z,101797.33
2023-01-26T13:29:57.231Z,101797.70
2023-01-26T13:33:28.820Z,101799.44
2023-01-26T13:36:43.076Z,101789.22
2023-01-26T13:43:32.048Z,101790.43
2023-01-26T13:47:31.137Z,101794.93
2023-01-26T13:50:53.970Z,101792.59
2023-01-26T13:54:33.576Z,101798.84
2023-01-26T13:58:34.588Z,101797.22
2023-01-26T14:01:52.387Z,101798.03
2023-01-26T14:05:26.116Z,101803.31
2023-01-26T14:08:41.838Z,101794.84
2023-01-26T14:12:23.818Z,101794.69
2023-01-26T14:16:06.584Z,101789.18
2023-01-26T14:19:40.396Z,101788.59
2023-01-26T14:23:13.885Z,101784.25
2023-01-26T14:26:57.081Z,101777.27
2023-01-26T14:30:35.958Z,101767.91
2023-01-26T14:34:05.374Z,101772.59
2023-01-26T14:37:50.172Z,101765.55
2023-01-26T14:41:18.977Z,101767.11
2023-01-26T14:49:05.050Z,101765.55
2023-01-26T14:56:16.626Z,101759.98
2023-01-26T14:59:46.580Z,101767.78
2023-01-26T15:03:24.616Z,101768.08
2023-01-26T15:06:55.436Z,101774.81
2023-01-26T15:10:16.598Z,101770.80
2023-01-26T15:17:35.182Z,101766.53
2023-01-26T15:21:01.851Z,101770.47
2023-01-26T15:24:39.580Z,101770.87
2023-01-26T15:28:11.141Z,101756.28
2023-01-26T15:31:52.423Z,101760.73
2023-01-26T15:35:23.087Z,101761.36
2023-01-26T15:38:49.287Z,101759.78
2023-01-26T15:42:27.934Z,101760.02
2023-01-26T15:46:12.453Z,101758.60
2023-01-26T16:31:25.232Z,101749.78
2023-01-26T16:34:36.623Z,101764.38
2023-01-26T16:37:56.876Z,101762.88
2023-01-26T16:41:22.369Z,101756.60
2023-01-26T16:44:43.848Z,101752.00
2023-01-26T16:48:01.813Z,101754.78
2023-01-26T16:54:40.718Z,101760.98
2023-01-26T16:58:00.315Z,101758.77
2023-01-26T17:01:16.589Z,101761.86
2023-01-26T17:04:31.508Z,101769.36
2023-01-26T17:07:53.994Z,101769.28
2023-01-26T17:11:13.875Z,101770.39
2023-01-26T17:14:32.881Z,101767.55
2023-01-26T17:17:52.125Z,101760.90
2023-01-26T17:21:09.140Z,101749.49
2023-01-26T17:24:32.139Z,101755.52
2023-01-26T17:27:46.399Z,101755.65
2023-01-26T17:31:05.527Z,101757.00
2023-01-26T17:34:20.268Z,101758.77
2023-01-26T17:37:35.849Z,101752.19
2023-01-26T17:41:02.838Z,101750.12
2023-01-26T17:44:23.432Z,101754.24
2023-01-26T17:47:48.472Z,101754.24
2023-01-26T17:51:20.992Z,101761.14
2023-01-26T17:54:49.014Z,101762.22
2023-01-26T17:58:04.588Z,101762.14
2023-01-26T18:01:32.743Z,101768.56
2023-01-26T18:05:00.972Z,101760.22
2023-01-26T18:08:13.530Z,101761.25
2023-01-26T18:11:27.385Z,101762.31
2023-01-26T18:14:40.017Z,101758.58
2023-01-26T18:17:54.735Z,101749.00
2023-01-26T18:21:08.451Z,101758.60
2023-01-26T18:24:19.024Z,101759.70
2023-01-26T18:27:39.733Z,101757.16
2023-01-26T18:30:47.609Z,101754.72
2023-01-26T18:34:07.882Z,101764.39
2023-01-26T18:37:27.559Z,101759.85
2023-01-26T18:40:38.958Z,101760.43
2023-01-26T18:43:49.617Z,101761.28
2023-01-26T18:47:06.476Z,101760.27
2023-01-26T18:50:18.084Z,101748.06
2023-01-26T18:53:28.444Z,101752.03
2023-01-26T18:56:50.935Z,101752.03
2023-01-26T19:00:08.491Z,101748.31
2023-01-26T19:03:26.162Z,101741.70
2023-01-26T19:06:43.823Z,101743.53
2023-01-26T19:10:18.570Z,101747.11
2023-01-26T19:13:33.928Z,101746.48
2023-01-26T19:16:44.255Z,101747.25
2023-01-26T19:19:56.985Z,101751.53
2023-01-26T19:23:13.618Z,101752.58
2023-01-26T19:26:29.076Z,101751.30
2023-01-26T19:29:40.979Z,101742.02
2023-01-26T19:33:11.740Z,101729.52
2023-01-26T19:36:24.225Z,101728.81
2023-01-26T19:39:34.058Z,101733.08
2023-01-26T19:42:46.363Z,101734.42
2023-01-26T19:45:56.671Z,101735.06
2023-01-26T19:49:10.399Z,101734.83
2023-01-26T19:52:24.129Z,101740.45
2023-01-26T19:55:40.431Z,101728.16
2023-01-26T19:58:55.824Z,101732.59
2023-01-26T20:02:11.529Z,101725.56
2023-01-26T20:05:22.338Z,101718.97
2023-01-26T20:08:39.916Z,101718.89
2023-01-26T20:11:55.803Z,101709.97
2023-01-26T20:15:12.058Z,101723.02
2023-01-26T20:18:29.544Z,101717.47
2023-01-26T20:21:41.539Z,101716.70
2023-01-26T20:24:59.879Z,101716.98
2023-01-26T20:28:17.508Z,101713.27
2023-01-26T20:31:39.878Z,101709.28
2023-01-26T20:35:00.628Z,101716.02
2023-01-26T20:38:09.823Z,101712.70
2023-01-26T20:41:24.846Z,101712.91
2023-01-26T20:44:37.424Z,101708.54
2023-01-26T20:47:51.098Z,101703.73
2023-01-26T20:51:07.934Z,101705.84
2023-01-26T20:54:23.152Z,101701.89
2023-01-26T20:57:36.720Z,101707.06
2023-01-26T21:00:53.805Z,101701.89
2023-01-26T21:04:04.788Z,101701.89
2023-01-26T21:07:16.336Z,101700.73
2023-01-26T21:10:29.217Z,101699.30
2023-01-26T21:13:44.486Z,101695.97
2023-01-26T21:16:57.259Z,101694.92
2023-01-26T21:20:16.362Z,101694.55
2023-01-26T21:23:35.492Z,101689.44
2023-01-26T21:26:46.842Z,101689.16
2023-01-26T21:30:08.853Z,101683.55
2023-01-26T21:33:21.965Z,101678.63
2023-01-26T21:36:42.183Z,101668.25
2023-01-26T21:40:04.838Z,101667.64
2023-01-26T21:43:24.453Z,101664.30
2023-01-26T21:46:37.377Z,101665.15
2023-01-26T21:50:02.967Z,101661.11
2023-01-26T21:53:18.029Z,101651.31
2023-01-26T21:56:34.365Z,101648.38
2023-01-26T21:59:50.788Z,101638.73
2023-01-26T22:03:11.668Z,101638.48
2023-01-26T22:06:30.036Z,101640.76
2023-01-26T22:09:59.336Z,101639.95
2023-01-26T22:13:23.075Z,101640.30
2023-01-26T22:16:34.549Z,101633.19
2023-01-26T22:19:42.379Z,101622.20
2023-01-26T22:22:58.120Z,101615.56
2023-01-26T22:26:30.378Z,101609.64
2023-01-26T22:29:46.696Z,101613.19
2023-01-26T22:33:03.622Z,101606.53
2023-01-26T22:36:21.368Z,101611.84
2023-01-26T22:39:38.963Z,101612.72
2023-01-26T22:43:08.651Z,101606.45
2023-01-26T22:46:18.884Z,101613.30
2023-01-26T22:49:21.999Z,101608.22
2023-01-26T22:52:27.001Z,101602.45
2023-01-26T22:55:18.418Z,101603.30
2023-01-26T22:58:57.564Z,101594.83
2023-01-26T23:02:24.002Z,101595.78
2023-01-26T23:05:45.395Z,101590.79
2023-01-26T23:09:07.061Z,101586.64
2023-01-26T23:12:37.771Z,101596.35
2023-01-26T23:16:05.588Z,101589.70
2023-01-26T23:19:19.847Z,101588.75
2023-01-26T23:22:37.680Z,101585.07
2023-01-26T23:26:05.866Z,101578.58
2023-01-26T23:29:27.762Z,101565.41
2023-01-26T23:33:03.648Z,101565.56
2023-01-26T23:36:19.914Z,101566.48
2023-01-26T23:39:38.371Z,101568.91
